sensor_id;sensor_type;location;lat;lon;timestamp;P1;durP1;ratioP1;P2;durP2;ratioP2
57615;SDS011;43816;52.054;-9.494;2022-11-20T00:00:08;4.60;;;3.35;;
57615;SDS011;43816;52.054;-9.494;2022-11-20T00:00:18;4.43;;;3.20;;
57615;SDS011;43816;52.054;-9.494;2022-11-20T00:00:31;4.60;;;3.20;;
57615;SDS011;43816;52.054;-9.494;2022-11-20T00:00:44;5.10;;;3.43;;
57615;SDS011;43816;52.054;-9.494;2022-11-20T00:01:03;5.13;;;3.72;;
57615;SDS011;43816;52.054;-9.494;2022-11-20T00:01:29;4.94;;;3.64;;
57615;SDS011;43816;52.054;-9.494;2022-11-20T00:01:40;5.05;;;3.65;;
57615;SDS011;43816;52.054;-9.494;2022-11-20T00:01:50;5.07;;;3.50;;
57615;SDS011;43816;52.054;-9.494;2022-11-20T00:02:00;5.30;;;3.40;;
57615;SDS011;43816;52.054;-9.494;2022-11-20T00:02:10;5.30;;;3.40;;
57615;SDS011;43816;52.054;-9.494;2022-11-20T00:02:24;5.85;;;3.60;;
57615;SDS011;43816;52.054;-9.494;2022-11-20T00:02:34;6.05;;;3.80;;
57615;SDS011;43816;52.054;-9.494;2022-11-20T00:02:44;5.93;;;3.70;;
57615;SDS011;43816;52.054;-9.494;2022-11-20T00:02:55;5.23;;;3.50;;
57615;SDS011;43816;52.054;-9.494;2022-11-20T00:03:05;4.95;;;3.45;;
57615;SDS011;43816;52.054;-9.494;2022-11-20T00:03:15;5.53;;;3.60;;
57615;SDS011;43816;52.054;-9.494;2022-11-20T00:03:28;5.67;;;3.60;;
57615;SDS011;43816;52.054;-9.494;2022-11-20T00:03:39;5.47;;;3.50;;
57615;SDS011;43816;52.054;-9.494;2022-11-20T00:03:50;4.65;;;3.33;;
57615;SDS011;43816;52.054;-9.494;2022-11-20T00:04:04;5.63;;;3.47;;
57615;SDS011;43816;52.054;-9.494;2022-11-20T00:04:17;5.97;;;3.60;;
57615;SDS011;43816;52.054;-9.494;2022-11-20T00:04:28;5.80;;;3.70;;
57615;SDS011;43816;52.054;-9.494;2022-11-20T00:04:38;5.23;;;3.50;;
57615;SDS011;43816;52.054;-9.494;2022-11-20T00:04:48;5.17;;;3.50;;
57615;SDS011;43816;52.054;-9.494;2022-11-20T00:04:58;4.93;;;3.50;;
57615;SDS011;43816;52.054;-9.494;2022-11-20T00:05:09;4.87;;;3.53;;
57615;SDS011;43816;52.054;-9.494;2022-11-20T00:05:19;5.17;;;3.73;;
57615;SDS011;43816;52.054;-9.494;2022-11-20T00:05:32;5.25;;;3.70;;
57615;SDS011;43816;52.054;-9.494;2022-11-20T00:05:43;5.88;;;3.70;;
57615;SDS011;43816;52.054;-9.494;2022-11-20T00:05:54;5.30;;;3.40;;
57615;SDS011;43816;52.054;-9.494;2022-11-20T00:06:16;4.38;;;3.50;;
57615;SDS011;43816;52.054;-9.494;2022-11-20T00:06:28;5.28;;;3.65;;
57615;SDS011;43816;52.054;-9.494;2022-11-20T00:06:38;5.82;;;3.65;;
57615;SDS011;43816;52.054;-9.494;2022-11-20T00:06:49;6.00;;;3.57;;
57615;SDS011;43816;52.054;-9.494;2022-11-20T00:07:02;5.68;;;3.60;;
57615;SDS011;43816;52.054;-9.494;2022-11-20T00:07:12;5.80;;;3.63;;
57615;SDS011;43816;52.054;-9.494;2022-11-20T00:07:23;5.43;;;3.50;;
57615;SDS011;43816;52.054;-9.494;2022-11-20T00:07:33;5.15;;;3.47;;
57615;SDS011;43816;52.054;-9.494;2022-11-20T00:07:46;4.83;;;3.40;;
57615;SDS011;43816;52.054;-9.494;2022-11-20T00:07:57;4.78;;;3.45;;
57615;SDS011;43816;52.054;-9.494;2022-11-20T00:08:10;5.25;;;3.47;;
57615;SDS011;43816;52.054;-9.494;2022-11-20T00:08:20;5.50;;;3.60;;
57615;SDS011;43816;52.054;-9.494;2022-11-20T00:08:31;5.67;;;3.60;;
57615;SDS011;43816;52.054;-9.494;2022-11-20T00:08:41;5.03;;;3.58;;
57615;SDS011;43816;52.054;-9.494;2022-11-20T00:08:53;5.28;;;3.70;;
57615;SDS011;43816;52.054;-9.494;2022-11-20T00:09:06;5.18;;;3.53;;
57615;SDS011;43816;52.054;-9.494;2022-11-20T00:09:16;4.97;;;3.60;;
57615;SDS011;43816;52.054;-9.494;2022-11-20T00:09:29;5.20;;;3.63;;
57615;SDS011;43816;52.054;-9.494;2022-11-20T00:09:39;5.30;;;3.65;;
57615;SDS011;43816;52.054;-9.494;2022-11-20T00:09:49;5.13;;;3.42;;
57615;SDS011;43816;52.054;-9.494;2022-11-20T00:10:00;4.70;;;3.30;;
57615;SDS011;43816;52.054;-9.494;2022-11-20T00:10:13;4.78;;;3.28;;
57615;SDS011;43816;52.054;-9.494;2022-11-20T00:10:23;5.15;;;3.35;;
57615;SDS011;43816;52.054;-9.494;2022-11-20T00:10:37;5.07;;;3.40;;
57615;SDS011;43816;52.054;-9.494;2022-11-20T00:10:50;4.70;;;3.47;;
57615;SDS011;43816;52.054;-9.494;2022-11-20T00:11:08;4.43;;;3.40;;
57615;SDS011;43816;52.054;-9.494;2022-11-20T00:11:21;5.90;;;3.90;;
57615;SDS011;43816;52.054;-9.494;2022-11-20T00:11:36;5.85;;;3.80;;
57615;SDS011;43816;52.054;-9.494;2022-11-20T00:11:46;5.60;;;3.78;;
57615;SDS011;43816;52.054;-9.494;2022-11-20T00:11:59;5.47;;;3.90;;
57615;SDS011;43816;52.054;-9.494;2022-11-20T00:12:10;5.53;;;4.00;;
57615;SDS011;43816;52.054;-9.494;2022-11-20T00:12:20;5.83;;;3.90;;
57615;SDS011;43816;52.054;-9.494;2022-11-20T00:12:30;5.73;;;3.83;;
57615;SDS011;43816;52.054;-9.494;2022-11-20T00:12:44;5.63;;;3.80;;
57615;SDS011;43816;52.054;-9.494;2022-11-20T00:12:54;4.80;;;3.55;;
57615;SDS011;43816;52.054;-9.494;2022-11-20T00:13:04;4.63;;;3.53;;
57615;SDS011;43816;52.054;-9.494;2022-11-20T00:13:15;4.63;;;3.72;;
57615;SDS011;43816;52.054;-9.494;2022-11-20T00:13:25;5.10;;;4.03;;
57615;SDS011;43816;52.054;-9.494;2022-11-20T00:13:36;5.20;;;3.97;;
57615;SDS011;43816;52.054;-9.494;2022-11-20T00:13:47;5.03;;;3.78;;
57615;SDS011;43816;52.054;-9.494;2022-11-20T00:14:00;4.78;;;3.50;;
57615;SDS011;43816;52.054;-9.494;2022-11-20T00:14:14;4.85;;;3.53;;
57615;SDS011;43816;52.054;-9.494;2022-11-20T00:14:24;5.32;;;3.55;;
57615;SDS011;43816;52.054;-9.494;2022-11-20T00:14:34;5.07;;;3.60;;
57615;SDS011;43816;52.054;-9.494;2022-11-20T00:14:44;4.77;;;3.50;;
57615;SDS011;43816;52.054;-9.494;2022-11-20T00:14:55;5.18;;;3.50;;
57615;SDS011;43816;52.054;-9.494;2022-11-20T00:15:05;5.43;;;3.80;;
57615;SDS011;43816;52.054;-9.494;2022-11-20T00:15:19;5.22;;;3.90;;
57615;SDS011;43816;52.054;-9.494;2022-11-20T00:15:29;4.97;;;3.85;;
57615;SDS011;43816;52.054;-9.494;2022-11-20T00:15:39;5.30;;;3.70;;
57615;SDS011;43816;52.054;-9.494;2022-11-20T00:15:56;5.70;;;3.72;;
57615;SDS011;43816;52.054;-9.494;2022-11-20T00:16:11;6.18;;;3.80;;
57615;SDS011;43816;52.054;-9.494;2022-11-20T00:16:25;5.75;;;3.95;;
57615;SDS011;43816;52.054;-9.494;2022-11-20T00:16:39;5.88;;;3.80;;
57615;SDS011;43816;52.054;-9.494;2022-11-20T00:16:53;5.40;;;3.70;;
57615;SDS011;43816;52.054;-9.494;2022-11-20T00:17:03;4.40;;;3.67;;
57615;SDS011;43816;52.054;-9.494;2022-11-20T00:17:16;4.43;;;3.67;;
57615;SDS011;43816;52.054;-9.494;2022-11-20T00:17:27;5.03;;;3.83;;
57615;SDS011;43816;52.054;-9.494;2022-11-20T00:17:37;4.90;;;3.80;;
57615;SDS011;43816;52.054;-9.494;2022-11-20T00:17:47;5.22;;;3.72;;
57615;SDS011;43816;52.054;-9.494;2022-11-20T00:17:57;5.17;;;3.60;;
57615;SDS011;43816;52.054;-9.494;2022-11-20T00:18:08;5.33;;;3.67;;
57615;SDS011;43816;52.054;-9.494;2022-11-20T00:18:18;5.30;;;3.65;;
57615;SDS011;43816;52.054;-9.494;2022-11-20T00:18:28;5.03;;;3.60;;
57615;SDS011;43816;52.054;-9.494;2022-11-20T00:18:39;5.57;;;3.70;;
57615;SDS011;43816;52.054;-9.494;2022-11-20T00:18:50;5.80;;;3.90;;
57615;SDS011;43816;52.054;-9.494;2022-11-20T00:19:01;5.65;;;4.10;;
57615;SDS011;43816;52.054;-9.494;2022-11-20T00:19:11;5.15;;;4.00;;
57615;SDS011;43816;52.054;-9.494;2022-11-20T00:19:21;5.00;;;3.90;;
57615;SDS011;43816;52.054;-9.494;2022-11-20T00:19:35;5.20;;;3.72;;
57615;SDS011;43816;52.054;-9.494;2022-11-20T00:19:45;5.83;;;3.90;;
57615;SDS011;43816;52.054;-9.494;2022-11-20T00:19:55;5.50;;;3.80;;
57615;SDS011;43816;52.054;-9.494;2022-11-20T00:20:05;5.60;;;3.90;;
57615;SDS011;43816;52.054;-9.494;2022-11-20T00:20:16;5.07;;;3.80;;
57615;SDS011;43816;52.054;-9.494;2022-11-20T00:20:26;5.43;;;3.80;;
57615;SDS011;43816;52.054;-9.494;2022-11-20T00:20:37;5.80;;;3.73;;
57615;SDS011;43816;52.054;-9.494;2022-11-20T00:20:50;5.67;;;4.00;;
57615;SDS011;43816;52.054;-9.494;2022-11-20T00:21:04;5.70;;;4.10;;
57615;SDS011;43816;52.054;-9.494;2022-11-20T00:21:41;4.82;;;3.65;;
57615;SDS011;43816;52.054;-9.494;2022-11-20T00:21:54;4.67;;;3.60;;
57615;SDS011;43816;52.054;-9.494;2022-11-20T00:22:04;5.55;;;3.85;;
57615;SDS011;43816;52.054;-9.494;2022-11-20T00:22:20;5.72;;;3.85;;
57615;SDS011;43816;52.054;-9.494;2022-11-20T00:22:30;5.30;;;3.72;;
57615;SDS011;43816;52.054;-9.494;2022-11-20T00:22:40;5.10;;;3.80;;
57615;SDS011;43816;52.054;-9.494;2022-11-20T00:22:51;4.93;;;3.77;;
57615;SDS011;43816;52.054;-9.494;2022-11-20T00:23:01;5.13;;;3.83;;
57615;SDS011;43816;52.054;-9.494;2022-11-20T00:23:11;5.28;;;3.90;;
57615;SDS011;43816;52.054;-9.494;2022-11-20T00:23:21;5.77;;;3.90;;
57615;SDS011;43816;52.054;-9.494;2022-11-20T00:23:32;5.50;;;3.97;;
57615;SDS011;43816;52.054;-9.494;2022-11-20T00:23:42;5.45;;;3.90;;
57615;SDS011;43816;52.054;-9.494;2022-11-20T00:23:54;5.43;;;4.05;;
57615;SDS011;43816;52.054;-9.494;2022-11-20T00:24:05;5.18;;;3.80;;
57615;SDS011;43816;52.054;-9.494;2022-11-20T00:24:21;5.00;;;3.72;;
57615;SDS011;43816;52.054;-9.494;2022-11-20T00:24:31;4.70;;;3.70;;
57615;SDS011;43816;52.054;-9.494;2022-11-20T00:24:41;5.30;;;3.70;;
57615;SDS011;43816;52.054;-9.494;2022-11-20T00:24:52;6.03;;;3.78;;
57615;SDS011;43816;52.054;-9.494;2022-11-20T00:25:02;5.70;;;3.73;;
57615;SDS011;43816;52.054;-9.494;2022-11-20T00:25:12;5.27;;;4.00;;
57615;SDS011;43816;52.054;-9.494;2022-11-20T00:25:26;5.10;;;3.97;;
57615;SDS011;43816;52.054;-9.494;2022-11-20T00:25:36;5.40;;;3.90;;
57615;SDS011;43816;52.054;-9.494;2022-11-20T00:25:47;5.25;;;3.90;;
57615;SDS011;43816;52.054;-9.494;2022-11-20T00:26:00;5.50;;;4.03;;
57615;SDS011;43816;52.054;-9.494;2022-11-20T00:26:16;5.15;;;4.10;;
57615;SDS011;43816;52.054;-9.494;2022-11-20T00:26:27;4.72;;;3.70;;
57615;SDS011;43816;52.054;-9.494;2022-11-20T00:26:38;5.10;;;3.63;;
57615;SDS011;43816;52.054;-9.494;2022-11-20T00:26:49;5.63;;;3.80;;
57615;SDS011;43816;52.054;-9.494;2022-11-20T00:26:59;6.17;;;3.93;;
57615;SDS011;43816;52.054;-9.494;2022-11-20T00:27:09;5.88;;;3.92;;
57615;SDS011;43816;52.054;-9.494;2022-11-20T00:27:22;5.33;;;3.87;;
57615;SDS011;43816;52.054;-9.494;2022-11-20T00:27:36;4.72;;;3.80;;
57615;SDS011;43816;52.054;-9.494;2022-11-20T00:27:46;5.18;;;3.90;;
57615;SDS011;43816;52.054;-9.494;2022-11-20T00:27:56;5.53;;;4.10;;
57615;SDS011;43816;52.054;-9.494;2022-11-20T00:28:06;5.70;;;4.20;;
57615;SDS011;43816;52.054;-9.494;2022-11-20T00:28:17;5.53;;;4.00;;
57615;SDS011;43816;52.054;-9.494;2022-11-20T00:28:30;5.72;;;3.97;;
57615;SDS011;43816;52.054;-9.494;2022-11-20T00:28:41;6.03;;;4.10;;
57615;SDS011;43816;52.054;-9.494;2022-11-20T00:28:53;5.65;;;4.20;;
57615;SDS011;43816;52.054;-9.494;2022-11-20T00:29:06;6.18;;;4.10;;
57615;SDS011;43816;52.054;-9.494;2022-11-20T00:29:19;6.00;;;4.20;;
57615;SDS011;43816;52.054;-9.494;2022-11-20T00:29:29;5.47;;;4.13;;
57615;SDS011;43816;52.054;-9.494;2022-11-20T00:29:39;5.50;;;4.47;;
57615;SDS011;43816;52.054;-9.494;2022-11-20T00:29:49;5.67;;;4.60;;
57615;SDS011;43816;52.054;-9.494;2022-11-20T00:30:00;6.50;;;4.82;;
57615;SDS011;43816;52.054;-9.494;2022-11-20T00:30:10;6.33;;;4.80;;
57615;SDS011;43816;52.054;-9.494;2022-11-20T00:30:20;7.37;;;5.03;;
57615;SDS011;43816;52.054;-9.494;2022-11-20T00:30:31;7.57;;;5.25;;
57615;SDS011;43816;52.054;-9.494;2022-11-20T00:30:41;7.90;;;5.23;;
57615;SDS011;43816;52.054;-9.494;2022-11-20T00:30:51;7.77;;;5.10;;
57615;SDS011;43816;52.054;-9.494;2022-11-20T00:31:22;7.43;;;5.10;;
57615;SDS011;43816;52.054;-9.494;2022-11-20T00:31:34;7.20;;;5.20;;
57615;SDS011;43816;52.054;-9.494;2022-11-20T00:31:47;6.96;;;5.02;;
57615;SDS011;43816;52.054;-9.494;2022-11-20T00:31:57;6.67;;;4.93;;
57615;SDS011;43816;52.054;-9.494;2022-11-20T00:32:08;6.53;;;4.90;;
57615;SDS011;43816;52.054;-9.494;2022-11-20T00:32:21;7.57;;;5.13;;
57615;SDS011;43816;52.054;-9.494;2022-11-20T00:32:32;7.80;;;5.10;;
57615;SDS011;43816;52.054;-9.494;2022-11-20T00:32:45;7.53;;;5.07;;
57615;SDS011;43816;52.054;-9.494;2022-11-20T00:32:58;6.22;;;4.88;;
57615;SDS011;43816;52.054;-9.494;2022-11-20T00:33:11;6.43;;;4.82;;
57615;SDS011;43816;52.054;-9.494;2022-11-20T00:33:21;6.90;;;5.00;;
57615;SDS011;43816;52.054;-9.494;2022-11-20T00:33:32;7.13;;;5.10;;
57615;SDS011;43816;52.054;-9.494;2022-11-20T00:33:46;7.47;;;5.07;;
57615;SDS011;43816;52.054;-9.494;2022-11-20T00:33:57;7.55;;;4.90;;
57615;SDS011;43816;52.054;-9.494;2022-11-20T00:34:08;7.70;;;5.00;;
57615;SDS011;43816;52.054;-9.494;2022-11-20T00:34:19;6.90;;;4.85;;
57615;SDS011;43816;52.054;-9.494;2022-11-20T00:34:29;6.33;;;4.80;;
57615;SDS011;43816;52.054;-9.494;2022-11-20T00:34:40;5.97;;;4.60;;
57615;SDS011;43816;52.054;-9.494;2022-11-20T00:34:50;6.03;;;4.63;;
57615;SDS011;43816;52.054;-9.494;2022-11-20T00:35:00;5.47;;;4.60;;
57615;SDS011;43816;52.054;-9.494;2022-11-20T00:35:10;6.23;;;4.70;;
57615;SDS011;43816;52.054;-9.494;2022-11-20T00:35:21;6.68;;;4.60;;
57615;SDS011;43816;52.054;-9.494;2022-11-20T00:35:31;7.10;;;4.50;;
57615;SDS011;43816;52.054;-9.494;2022-11-20T00:35:41;6.07;;;4.30;;
57615;SDS011;43816;52.054;-9.494;2022-11-20T00:35:52;6.28;;;4.45;;
57615;SDS011;43816;52.054;-9.494;2022-11-20T00:36:02;6.10;;;4.50;;
57615;SDS011;43816;52.054;-9.494;2022-11-20T00:36:16;6.35;;;4.50;;
57615;SDS011;43816;52.054;-9.494;2022-11-20T00:36:28;5.55;;;4.30;;
57615;SDS011;43816;52.054;-9.494;2022-11-20T00:36:41;5.85;;;4.40;;
57615;SDS011;43816;52.054;-9.494;2022-11-20T00:36:51;6.32;;;4.55;;
57615;SDS011;43816;52.054;-9.494;2022-11-20T00:37:02;6.47;;;4.70;;
57615;SDS011;43816;52.054;-9.494;2022-11-20T00:37:12;6.37;;;4.70;;
57615;SDS011;43816;52.054;-9.494;2022-11-20T00:37:22;6.25;;;4.60;;
57615;SDS011;43816;52.054;-9.494;2022-11-20T00:37:32;5.87;;;4.40;;
57615;SDS011;43816;52.054;-9.494;2022-11-20T00:37:43;5.70;;;4.33;;
57615;SDS011;43816;52.054;-9.494;2022-11-20T00:37:53;5.50;;;4.20;;
57615;SDS011;43816;52.054;-9.494;2022-11-20T00:38:03;5.77;;;4.30;;
57615;SDS011;43816;52.054;-9.494;2022-11-20T00:38:14;6.60;;;4.57;;
57615;SDS011;43816;52.054;-9.494;2022-11-20T00:38:24;6.70;;;4.60;;
57615;SDS011;43816;52.054;-9.494;2022-11-20T00:38:34;6.65;;;4.50;;
57615;SDS011;43816;52.054;-9.494;2022-11-20T00:38:45;5.90;;;4.20;;
57615;SDS011;43816;52.054;-9.494;2022-11-20T00:39:16;7.53;;;4.60;;
57615;SDS011;43816;52.054;-9.494;2022-11-20T00:39:29;7.40;;;4.60;;
57615;SDS011;43816;52.054;-9.494;2022-11-20T00:39:39;6.53;;;4.50;;
57615;SDS011;43816;52.054;-9.494;2022-11-20T00:39:49;5.10;;;4.20;;
57615;SDS011;43816;52.054;-9.494;2022-11-20T00:40:03;5.22;;;4.18;;
57615;SDS011;43816;52.054;-9.494;2022-11-20T00:40:13;5.55;;;4.20;;
57615;SDS011;43816;52.054;-9.494;2022-11-20T00:40:24;6.10;;;4.28;;
57615;SDS011;43816;52.054;-9.494;2022-11-20T00:40:34;6.20;;;4.27;;
57615;SDS011;43816;52.054;-9.494;2022-11-20T00:40:44;6.60;;;4.20;;
57615;SDS011;43816;52.054;-9.494;2022-11-20T00:40:58;6.57;;;4.40;;
57615;SDS011;43816;52.054;-9.494;2022-11-20T00:41:13;5.78;;;4.20;;
57615;SDS011;43816;52.054;-9.494;2022-11-20T00:41:28;5.53;;;3.90;;
57615;SDS011;43816;52.054;-9.494;2022-11-20T00:41:39;5.65;;;3.95;;
57615;SDS011;43816;52.054;-9.494;2022-11-20T00:41:52;5.57;;;4.10;;
57615;SDS011;43816;52.054;-9.494;2022-11-20T00:42:02;5.88;;;4.35;;
57615;SDS011;43816;52.054;-9.494;2022-11-20T00:42:15;5.93;;;4.30;;
57615;SDS011;43816;52.054;-9.494;2022-11-20T00:42:26;6.03;;;4.47;;
57615;SDS011;43816;52.054;-9.494;2022-11-20T00:42:36;5.77;;;4.40;;
57615;SDS011;43816;52.054;-9.494;2022-11-20T00:42:49;5.95;;;4.40;;
57615;SDS011;43816;52.054;-9.494;2022-11-20T00:42:59;5.63;;;4.30;;
57615;SDS011;43816;52.054;-9.494;2022-11-20T00:43:09;5.83;;;4.43;;
57615;SDS011;43816;52.054;-9.494;2022-11-20T00:43:20;6.00;;;4.37;;
57615;SDS011;43816;52.054;-9.494;2022-11-20T00:43:30;6.10;;;4.43;;
57615;SDS011;43816;52.054;-9.494;2022-11-20T00:43:41;5.80;;;4.23;;
57615;SDS011;43816;52.054;-9.494;2022-11-20T00:43:52;5.63;;;4.30;;
57615;SDS011;43816;52.054;-9.494;2022-11-20T00:44:03;5.90;;;4.13;;
57615;SDS011;43816;52.054;-9.494;2022-11-20T00:44:13;6.17;;;4.17;;
57615;SDS011;43816;52.054;-9.494;2022-11-20T00:44:24;6.23;;;4.10;;
57615;SDS011;43816;52.054;-9.494;2022-11-20T00:44:34;6.13;;;4.18;;
57615;SDS011;43816;52.054;-9.494;2022-11-20T00:44:44;5.23;;;4.00;;
57615;SDS011;43816;52.054;-9.494;2022-11-20T00:44:57;5.03;;;3.97;;
57615;SDS011;43816;52.054;-9.494;2022-11-20T00:45:08;5.10;;;4.10;;
57615;SDS011;43816;52.054;-9.494;2022-11-20T00:45:18;5.22;;;4.20;;
57615;SDS011;43816;52.054;-9.494;2022-11-20T00:45:28;4.70;;;4.00;;
57615;SDS011;43816;52.054;-9.494;2022-11-20T00:45:39;4.72;;;4.18;;
57615;SDS011;43816;52.054;-9.494;2022-11-20T00:45:56;5.17;;;4.17;;
57615;SDS011;43816;52.054;-9.494;2022-11-20T00:46:16;5.53;;;4.05;;
57615;SDS011;43816;52.054;-9.494;2022-11-20T00:46:28;4.78;;;4.20;;
57615;SDS011;43816;52.054;-9.494;2022-11-20T00:46:41;4.90;;;4.30;;
57615;SDS011;43816;52.054;-9.494;2022-11-20T00:46:52;5.07;;;4.20;;
57615;SDS011;43816;52.054;-9.494;2022-11-20T00:47:05;5.07;;;4.07;;
57615;SDS011;43816;52.054;-9.494;2022-11-20T00:47:15;5.05;;;3.90;;
57615;SDS011;43816;52.054;-9.494;2022-11-20T00:47:25;5.07;;;3.75;;
57615;SDS011;43816;52.054;-9.494;2022-11-20T00:47:36;4.97;;;3.73;;
57615;SDS011;43816;52.054;-9.494;2022-11-20T00:47:46;4.93;;;3.70;;
57615;SDS011;43816;52.054;-9.494;2022-11-20T00:47:59;5.70;;;3.90;;
57615;SDS011;43816;52.054;-9.494;2022-11-20T00:48:09;6.22;;;4.10;;
57615;SDS011;43816;52.054;-9.494;2022-11-20T00:48:20;5.97;;;4.07;;
57615;SDS011;43816;52.054;-9.494;2022-11-20T00:48:30;5.53;;;4.07;;
57615;SDS011;43816;52.054;-9.494;2022-11-20T00:48:41;4.73;;;3.83;;
57615;SDS011;43816;52.054;-9.494;2022-11-20T00:48:52;4.93;;;3.88;;
57615;SDS011;43816;52.054;-9.494;2022-11-20T00:49:02;5.10;;;3.90;;
57615;SDS011;43816;52.054;-9.494;2022-11-20T00:49:12;5.43;;;4.00;;
57615;SDS011;43816;52.054;-9.494;2022-11-20T00:49:23;4.87;;;3.90;;
57615;SDS011;43816;52.054;-9.494;2022-11-20T00:49:33;5.25;;;4.03;;
57615;SDS011;43816;52.054;-9.494;2022-11-20T00:49:43;5.40;;;4.00;;
57615;SDS011;43816;52.054;-9.494;2022-11-20T00:49:54;5.70;;;4.07;;
57615;SDS011;43816;52.054;-9.494;2022-11-20T00:50:04;5.43;;;4.03;;
57615;SDS011;43816;52.054;-9.494;2022-11-20T00:50:18;5.27;;;4.10;;
57615;SDS011;43816;52.054;-9.494;2022-11-20T00:50:28;5.05;;;4.07;;
57615;SDS011;43816;52.054;-9.494;2022-11-20T00:50:41;5.27;;;4.00;;
57615;SDS011;43816;52.054;-9.494;2022-11-20T00:50:52;5.43;;;4.13;;
57615;SDS011;43816;52.054;-9.494;2022-11-20T00:51:03;5.28;;;4.05;;
57615;SDS011;43816;52.054;-9.494;2022-11-20T00:51:17;4.77;;;3.80;;
57615;SDS011;43816;52.054;-9.494;2022-11-20T00:51:29;4.55;;;3.60;;
57615;SDS011;43816;52.054;-9.494;2022-11-20T00:51:40;5.00;;;3.85;;
57615;SDS011;43816;52.054;-9.494;2022-11-20T00:51:53;5.37;;;4.10;;
57615;SDS011;43816;52.054;-9.494;2022-11-20T00:52:03;5.32;;;4.10;;
57615;SDS011;43816;52.054;-9.494;2022-11-20T00:52:13;5.00;;;3.95;;
57615;SDS011;43816;52.054;-9.494;2022-11-20T00:52:24;5.10;;;3.80;;
57615;SDS011;43816;52.054;-9.494;2022-11-20T00:52:34;4.60;;;3.67;;
57615;SDS011;43816;52.054;-9.494;2022-11-20T00:52:44;5.20;;;3.75;;
57615;SDS011;43816;52.054;-9.494;2022-11-20T00:52:57;5.53;;;3.83;;
57615;SDS011;43816;52.054;-9.494;2022-11-20T00:53:07;5.90;;;4.00;;
57615;SDS011;43816;52.054;-9.494;2022-11-20T00:53:21;5.80;;;3.97;;
57615;SDS011;43816;52.054;-9.494;2022-11-20T00:53:32;5.82;;;3.92;;
57615;SDS011;43816;52.054;-9.494;2022-11-20T00:53:43;5.68;;;3.85;;
57615;SDS011;43816;52.054;-9.494;2022-11-20T00:53:57;5.45;;;3.70;;
57615;SDS011;43816;52.054;-9.494;2022-11-20T00:54:10;5.25;;;3.67;;
57615;SDS011;43816;52.054;-9.494;2022-11-20T00:54:23;5.05;;;3.75;;
57615;SDS011;43816;52.054;-9.494;2022-11-20T00:54:34;4.57;;;3.70;;
57615;SDS011;43816;52.054;-9.494;2022-11-20T00:54:44;4.93;;;3.95;;
57615;SDS011;43816;52.054;-9.494;2022-11-20T00:54:54;4.83;;;3.93;;
57615;SDS011;43816;52.054;-9.494;2022-11-20T00:55:05;4.93;;;3.80;;
57615;SDS011;43816;52.054;-9.494;2022-11-20T00:55:15;4.68;;;3.60;;
57615;SDS011;43816;52.054;-9.494;2022-11-20T00:55:25;4.50;;;3.57;;
57615;SDS011;43816;52.054;-9.494;2022-11-20T00:55:36;4.43;;;3.60;;
57615;SDS011;43816;52.054;-9.494;2022-11-20T00:55:56;4.57;;;3.70;;
57615;SDS011;43816;52.054;-9.494;2022-11-20T00:56:10;5.25;;;3.78;;
57615;SDS011;43816;52.054;-9.494;2022-11-20T00:56:24;5.28;;;3.92;;
57615;SDS011;43816;52.054;-9.494;2022-11-20T00:56:37;4.80;;;3.70;;
57615;SDS011;43816;52.054;-9.494;2022-11-20T00:56:47;4.97;;;3.63;;
57615;SDS011;43816;52.054;-9.494;2022-11-20T00:56:58;4.90;;;3.65;;
57615;SDS011;43816;52.054;-9.494;2022-11-20T00:57:08;5.37;;;3.77;;
57615;SDS011;43816;52.054;-9.494;2022-11-20T00:57:18;5.00;;;3.70;;
57615;SDS011;43816;52.054;-9.494;2022-11-20T00:57:31;5.57;;;3.88;;
57615;SDS011;43816;52.054;-9.494;2022-11-20T00:57:42;4.97;;;3.80;;
57615;SDS011;43816;52.054;-9.494;2022-11-20T00:57:52;5.20;;;4.00;;
57615;SDS011;43816;52.054;-9.494;2022-11-20T00:58:02;4.97;;;3.80;;
57615;SDS011;43816;52.054;-9.494;2022-11-20T00:58:12;5.07;;;3.80;;
57615;SDS011;43816;52.054;-9.494;2022-11-20T00:58:23;5.07;;;3.60;;
57615;SDS011;43816;52.054;-9.494;2022-11-20T00:58:42;4.30;;;3.42;;
57615;SDS011;43816;52.054;-9.494;2022-11-20T00:58:54;3.88;;;3.45;;
57615;SDS011;43816;52.054;-9.494;2022-11-20T00:59:04;4.30;;;3.67;;
57615;SDS011;43816;52.054;-9.494;2022-11-20T00:59:15;4.70;;;3.73;;
57615;SDS011;43816;52.054;-9.494;2022-11-20T00:59:25;5.00;;;3.72;;
57615;SDS011;43816;52.054;-9.494;2022-11-20T00:59:35;5.03;;;3.60;;
57615;SDS011;43816;52.054;-9.494;2022-11-20T00:59:46;5.30;;;3.80;;
57615;SDS011;43816;52.054;-9.494;2022-11-20T00:59:59;5.18;;;3.78;;
57615;SDS011;43816;52.054;-9.494;2022-11-20T01:00:09;6.03;;;3.70;;
57615;SDS011;43816;52.054;-9.494;2022-11-20T01:00:20;6.00;;;3.60;;
57615;SDS011;43816;52.054;-9.494;2022-11-20T01:00:30;5.57;;;3.67;;
57615;SDS011;43816;52.054;-9.494;2022-11-20T01:00:40;4.70;;;3.70;;
57615;SDS011;43816;52.054;-9.494;2022-11-20T01:00:51;4.50;;;3.75;;
57615;SDS011;43816;52.054;-9.494;2022-11-20T01:01:02;4.70;;;3.70;;
57615;SDS011;43816;52.054;-9.494;2022-11-20T01:01:15;5.15;;;3.70;;
57615;SDS011;43816;52.054;-9.494;2022-11-20T01:01:29;4.85;;;3.63;;
57615;SDS011;43816;52.054;-9.494;2022-11-20T01:01:40;5.53;;;3.75;;
57615;SDS011;43816;52.054;-9.494;2022-11-20T01:01:53;5.50;;;3.80;;
57615;SDS011;43816;52.054;-9.494;2022-11-20T01:02:03;5.20;;;3.60;;
57615;SDS011;43816;52.054;-9.494;2022-11-20T01:02:14;4.78;;;3.72;;
57615;SDS011;43816;52.054;-9.494;2022-11-20T01:02:24;4.87;;;3.70;;
57615;SDS011;43816;52.054;-9.494;2022-11-20T01:02:34;4.70;;;3.67;;
57615;SDS011;43816;52.054;-9.494;2022-11-20T01:02:44;4.72;;;3.58;;
57615;SDS011;43816;52.054;-9.494;2022-11-20T01:02:55;4.37;;;3.40;;
57615;SDS011;43816;52.054;-9.494;2022-11-20T01:03:06;4.70;;;3.63;;
57615;SDS011;43816;52.054;-9.494;2022-11-20T01:03:16;4.93;;;3.70;;
57615;SDS011;43816;52.054;-9.494;2022-11-20T01:03:30;5.40;;;3.85;;
57615;SDS011;43816;52.054;-9.494;2022-11-20T01:03:45;4.80;;;3.67;;
57615;SDS011;43816;52.054;-9.494;2022-11-20T01:03:57;4.30;;;3.45;;
57615;SDS011;43816;52.054;-9.494;2022-11-20T01:04:09;4.72;;;3.42;;
57615;SDS011;43816;52.054;-9.494;2022-11-20T01:04:20;4.97;;;3.53;;
57615;SDS011;43816;52.054;-9.494;2022-11-20T01:04:30;5.20;;;3.63;;
57615;SDS011;43816;52.054;-9.494;2022-11-20T01:04:43;5.57;;;3.70;;
57615;SDS011;43816;52.054;-9.494;2022-11-20T01:04:53;5.75;;;3.65;;
57615;SDS011;43816;52.054;-9.494;2022-11-20T01:05:04;5.23;;;3.50;;
57615;SDS011;43816;52.054;-9.494;2022-11-20T01:05:14;4.63;;;3.53;;
57615;SDS011;43816;52.054;-9.494;2022-11-20T01:05:27;4.17;;;3.50;;
57615;SDS011;43816;52.054;-9.494;2022-11-20T01:05:37;4.93;;;3.53;;
57615;SDS011;43816;52.054;-9.494;2022-11-20T01:05:48;4.97;;;3.53;;
57615;SDS011;43816;52.054;-9.494;2022-11-20T01:06:02;4.50;;;3.40;;
57615;SDS011;43816;52.054;-9.494;2022-11-20T01:06:34;4.18;;;3.58;;
57615;SDS011;43816;52.054;-9.494;2022-11-20T01:06:48;4.80;;;3.65;;
57615;SDS011;43816;52.054;-9.494;2022-11-20T01:06:58;4.60;;;3.63;;
57615;SDS011;43816;52.054;-9.494;2022-11-20T01:07:11;4.13;;;3.47;;
57615;SDS011;43816;52.054;-9.494;2022-11-20T01:07:21;3.80;;;3.37;;
57615;SDS011;43816;52.054;-9.494;2022-11-20T01:07:31;4.60;;;3.43;;
57615;SDS011;43816;52.054;-9.494;2022-11-20T01:07:45;5.18;;;3.50;;
57615;SDS011;43816;52.054;-9.494;2022-11-20T01:07:55;5.80;;;3.60;;
57615;SDS011;43816;52.054;-9.494;2022-11-20T01:08:05;4.90;;;3.50;;
57615;SDS011;43816;52.054;-9.494;2022-11-20T01:08:15;5.40;;;3.63;;
57615;SDS011;43816;52.054;-9.494;2022-11-20T01:08:28;5.43;;;3.57;;
57615;SDS011;43816;52.054;-9.494;2022-11-20T01:08:40;5.13;;;3.40;;
57615;SDS011;43816;52.054;-9.494;2022-11-20T01:08:51;4.97;;;3.45;;
57615;SDS011;43816;52.054;-9.494;2022-11-20T01:09:10;4.53;;;3.53;;
57615;SDS011;43816;52.054;-9.494;2022-11-20T01:09:22;4.95;;;3.55;;
57615;SDS011;43816;52.054;-9.494;2022-11-20T01:09:35;5.10;;;3.50;;